createdAt,value
2023-01-23T00:00:43.870Z,14.03
2023-01-23T00:03:30.566Z,13.57
2023-01-23T00:06:18.078Z,13.87
2023-01-23T00:09:04.931Z,13.80
2023-01-23T00:11:52.695Z,14.73
2023-01-23T00:14:39.214Z,14.60
2023-01-23T00:17:27.408Z,14.60
2023-01-23T00:20:14.467Z,14.10
2023-01-23T00:23:00.834Z,12.57
2023-01-23T00:25:47.196Z,13.30
2023-01-23T00:28:34.945Z,13.87
2023-01-23T00:31:24.641Z,14.10
2023-01-23T00:34:14.011Z,14.00
2023-01-23T00:37:00.314Z,13.70
2023-01-23T00:39:46.820Z,13.90
2023-01-23T00:42:33.062Z,15.50
2023-01-23T00:45:20.934Z,12.57
2023-01-23T00:48:07.801Z,14.17
2023-01-23T00:50:54.850Z,13.17
2023-01-23T00:53:41.429Z,13.03
2023-01-23T00:56:27.816Z,13.73
2023-01-23T00:59:14.695Z,12.67
2023-01-23T01:02:02.343Z,13.30
2023-01-23T01:04:48.654Z,13.33
2023-01-23T01:07:34.952Z,14.67
2023-01-23T01:10:21.707Z,13.77
2023-01-23T01:13:08.543Z,13.57
2023-01-23T01:15:55.837Z,13.63
2023-01-23T01:18:43.766Z,13.40
2023-01-23T01:21:30.207Z,13.77
2023-01-23T01:24:16.776Z,12.70
2023-01-23T01:27:03.341Z,13.33
2023-01-23T01:29:49.633Z,13.63
2023-01-23T01:32:37.854Z,13.80
2023-01-23T01:35:26.393Z,14.23
2023-01-23T01:38:12.630Z,15.07
2023-01-23T01:40:59.080Z,14.80
2023-01-23T01:43:46.012Z,14.27
2023-01-23T01:46:33.087Z,12.60
2023-01-23T01:49:24.824Z,13.57
2023-01-23T01:52:15.408Z,13.37
2023-01-23T01:55:06.060Z,13.77
2023-01-23T01:57:54.351Z,13.23
2023-01-23T02:00:41.100Z,14.13
2023-01-23T02:03:27.798Z,14.10
2023-01-23T02:06:14.344Z,14.00
2023-01-23T02:09:07.299Z,14.70
2023-01-23T02:11:54.174Z,13.70
2023-01-23T02:14:40.616Z,13.50
2023-01-23T02:17:27.147Z,14.20
2023-01-23T02:20:20.263Z,14.23
2023-01-23T02:23:14.527Z,14.80
2023-01-23T02:26:06.105Z,14.63
2023-01-23T02:28:55.202Z,13.93
2023-01-23T02:31:45.223Z,14.37
2023-01-23T02:34:32.090Z,14.50
2023-01-23T02:37:19.888Z,13.10
2023-01-23T02:40:08.058Z,14.77
2023-01-23T02:42:56.219Z,14.20
2023-01-23T02:45:42.851Z,14.27
2023-01-23T02:48:29.128Z,13.90
2023-01-23T02:51:16.927Z,14.37
2023-01-23T02:54:03.693Z,14.33
2023-01-23T02:56:50.601Z,14.00
2023-01-23T02:59:55.967Z,14.37
2023-01-23T03:02:42.702Z,14.43
2023-01-23T03:05:28.917Z,13.67
2023-01-23T03:08:15.278Z,14.40
2023-01-23T03:11:02.477Z,13.67
2023-01-23T03:13:49.559Z,13.67
2023-01-23T03:16:38.463Z,14.60
2023-01-23T03:19:26.981Z,13.83
2023-01-23T03:22:13.444Z,14.37
2023-01-23T03:24:59.741Z,14.43
2023-01-23T03:27:46.150Z,14.10
2023-01-23T03:30:31.717Z,14.83
2023-01-23T03:33:19.205Z,15.13
2023-01-23T03:36:05.891Z,14.37
2023-01-23T03:39:09.708Z,15.10
2023-01-23T03:41:56.398Z,13.73
2023-01-23T03:44:44.245Z,15.17
2023-01-23T03:47:30.614Z,14.80
2023-01-23T03:50:18.895Z,15.17
2023-01-23T03:53:05.573Z,14.97
2023-01-23T03:55:52.151Z,14.80
2023-01-23T03:58:38.851Z,14.60
2023-01-23T04:01:25.474Z,16.10
2023-01-23T04:04:12.165Z,15.80
2023-01-23T04:06:59.997Z,14.23
2023-01-23T04:09:46.562Z,14.97
2023-01-23T04:12:32.900Z,14.87
2023-01-23T04:15:19.279Z,14.40
2023-01-23T04:18:05.720Z,14.50
2023-01-23T04:20:52.498Z,15.17
2023-01-23T04:23:40.400Z,14.30
2023-01-23T04:26:26.617Z,14.97
2023-01-23T04:29:13.418Z,15.23
2023-01-23T04:31:59.702Z,16.03
2023-01-23T04:34:46.132Z,13.90
2023-01-23T04:37:32.448Z,15.50
2023-01-23T04:40:20.786Z,14.77
2023-01-23T04:43:07.156Z,15.73
2023-01-23T04:45:55.380Z,14.93
2023-01-23T04:48:41.921Z,15.03
2023-01-23T04:51:28.228Z,14.43
2023-01-23T04:54:14.503Z,15.60
2023-01-23T04:57:02.114Z,15.30
2023-01-23T04:59:48.530Z,15.17
2023-01-23T05:02:36.464Z,16.50
2023-01-23T05:05:23.432Z,18.20
2023-01-23T05:08:10.043Z,17.40
2023-01-23T05:10:56.437Z,17.30
2023-01-23T05:13:44.291Z,17.17
2023-01-23T05:16:30.948Z,15.10
2023-01-23T05:19:17.428Z,16.10
2023-01-23T05:22:03.727Z,17.00
2023-01-23T05:24:50.268Z,17.70
2023-01-23T05:27:36.844Z,20.97
2023-01-23T05:30:25.045Z,18.53
2023-01-23T05:33:11.871Z,18.20
2023-01-23T05:36:00.734Z,21.07
2023-01-23T05:38:47.406Z,18.57
2023-01-23T05:41:33.742Z,18.00
2023-01-23T05:44:19.980Z,17.80
2023-01-23T05:47:07.680Z,17.83
2023-01-23T05:49:54.063Z,19.23
2023-01-23T05:52:40.524Z,20.13
2023-01-23T05:55:27.340Z,18.37
2023-01-23T05:58:15.921Z,17.93
2023-01-23T06:01:03.483Z,17.50
2023-01-23T06:03:51.075Z,17.87
2023-01-23T06:06:37.573Z,18.33
2023-01-23T06:09:24.007Z,15.90
2023-01-23T06:12:10.769Z,18.30
2023-01-23T06:14:57.370Z,18.37
2023-01-23T06:17:43.653Z,17.30
2023-01-23T06:20:31.312Z,19.17
2023-01-23T06:23:17.817Z,18.50
2023-01-23T06:26:05.057Z,16.50
2023-01-23T06:28:51.474Z,19.03
2023-01-23T06:31:37.819Z,18.13
2023-01-23T06:34:24.171Z,18.10
2023-01-23T06:37:11.856Z,19.27
2023-01-23T06:39:58.341Z,19.07
2023-01-23T06:42:44.906Z,19.60
2023-01-23T06:45:31.444Z,18.67
2023-01-23T06:48:18.125Z,20.33
2023-01-23T06:51:06.086Z,19.80
2023-01-23T06:53:53.812Z,17.93
2023-01-23T06:56:40.183Z,18.27
2023-01-23T06:59:26.579Z,19.73
2023-01-23T07:02:13.843Z,18.90
2023-01-23T07:05:00.236Z,18.20
2023-01-23T07:07:47.035Z,18.53
2023-01-23T07:10:35.282Z,17.70
2023-01-23T07:13:21.734Z,17.30
2023-01-23T07:16:08.981Z,17.07
2023-01-23T07:18:58.795Z,16.57
2023-01-23T07:21:45.221Z,17.10
2023-01-23T07:24:32.477Z,15.77
2023-01-23T07:27:20.461Z,15.97
2023-01-23T07:30:07.765Z,16.23
2023-01-23T07:32:54.206Z,17.07
2023-01-23T07:35:40.931Z,16.97
2023-01-23T07:38:28.031Z,16.07
2023-01-23T07:41:14.484Z,16.27
2023-01-23T07:44:02.194Z,17.27
2023-01-23T07:46:49.359Z,16.43
2023-01-23T07:49:36.012Z,16.60
2023-01-23T07:52:22.568Z,15.83
2023-01-23T07:55:10.380Z,15.90
2023-01-23T07:57:57.269Z,14.73
2023-01-23T08:00:45.839Z,15.33
2023-01-23T08:03:32.092Z,15.73
2023-01-23T08:06:18.524Z,16.80
2023-01-23T08:09:04.996Z,15.30
2023-01-23T08:11:53.220Z,14.60
2023-01-23T08:14:40.707Z,14.93
2023-01-23T08:17:28.370Z,14.77
2023-01-23T08:20:15.133Z,15.10
2023-01-23T08:23:02.703Z,15.30
2023-01-23T08:25:54.213Z,14.97
2023-01-23T08:28:40.633Z,15.40
2023-01-23T08:31:27.070Z,14.63
2023-01-23T08:34:15.456Z,14.43
2023-01-23T08:37:01.823Z,15.00
2023-01-23T08:39:48.391Z,14.83
2023-01-23T08:42:35.076Z,16.10
2023-01-23T08:45:22.148Z,14.73
2023-01-23T08:48:08.778Z,14.87
2023-01-23T08:51:03.070Z,14.40
2023-01-23T08:53:49.240Z,15.60
2023-01-23T08:56:35.564Z,14.93
2023-01-23T08:59:21.945Z,15.00
2023-01-23T09:02:08.474Z,15.83
2023-01-23T09:04:54.891Z,15.23
2023-01-23T09:07:42.732Z,15.97
2023-01-23T09:10:29.606Z,14.27
2023-01-23T09:13:16.665Z,15.80
2023-01-23T09:16:03.780Z,15.77
2023-01-23T09:18:50.523Z,16.67
2023-01-23T09:21:37.123Z,15.57
2023-01-23T09:24:24.984Z,16.20
2023-01-23T09:27:11.476Z,15.63
2023-01-23T09:29:57.764Z,16.13
2023-01-23T09:32:44.157Z,16.40
2023-01-23T09:35:30.785Z,16.43
2023-01-23T09:38:17.456Z,15.43
2023-01-23T09:41:12.769Z,15.60
2023-01-23T09:44:01.761Z,15.33
2023-01-23T09:46:52.564Z,16.33
2023-01-23T09:49:46.155Z,14.60
2023-01-23T09:52:37.902Z,15.87
2023-01-23T09:55:35.653Z,16.57
2023-01-23T09:58:27.323Z,17.63
2023-01-23T10:01:14.481Z,16.60
2023-01-23T10:04:03.138Z,18.27
2023-01-23T10:07:22.774Z,17.63
2023-01-23T10:10:26.031Z,17.37
2023-01-23T10:13:17.413Z,18.80
2023-01-23T10:16:35.396Z,19.43
2023-01-23T10:19:47.951Z,18.63
2023-01-23T10:22:38.649Z,18.27
2023-01-23T10:25:28.586Z,18.27
2023-01-23T10:28:29.712Z,19.13
2023-01-23T10:31:29.990Z,19.50
2023-01-23T10:34:23.336Z,17.17
2023-01-23T10:37:17.950Z,18.17
2023-01-23T10:40:11.476Z,17.90
2023-01-23T10:43:03.483Z,18.43
2023-01-23T10:45:51.184Z,16.77
2023-01-23T10:48:47.391Z,19.77
2023-01-23T10:51:36.905Z,17.33
2023-01-23T10:54:32.235Z,18.60
2023-01-23T10:57:26.170Z,18.73
2023-01-23T11:00:23.192Z,19.33
2023-01-23T11:03:31.094Z,19.00
2023-01-23T11:06:25.831Z,17.83
2023-01-23T11:09:21.094Z,18.83
2023-01-23T11:12:15.350Z,17.80
2023-01-23T11:15:22.737Z,16.80
2023-01-23T11:18:31.907Z,18.93
2023-01-23T11:21:24.250Z,17.63
2023-01-23T11:24:18.839Z,18.67
2023-01-23T11:27:18.115Z,18.53
2023-01-23T11:30:26.250Z,18.67
2023-01-23T11:33:23.790Z,19.93
2023-01-23T11:36:37.641Z,20.70
2023-01-23T11:39:41.172Z,20.07
2023-01-23T11:42:29.463Z,20.50
2023-01-23T11:45:30.391Z,17.93
2023-01-23T11:48:46.415Z,19.13
2023-01-23T11:51:38.920Z,17.80
2023-01-23T11:54:49.227Z,19.53
2023-01-23T11:57:48.388Z,17.17
2023-01-23T12:00:39.303Z,22.73
2023-01-23T12:04:02.825Z,17.53
2023-01-23T12:07:21.592Z,25.10
2023-01-23T12:10:23.348Z,22.93
2023-01-23T12:13:21.900Z,19.90
2023-01-23T12:16:17.576Z,20.63
2023-01-23T12:19:21.676Z,19.47
2023-01-23T12:22:16.024Z,18.57
2023-01-23T12:25:15.757Z,22.83
2023-01-23T12:28:12.370Z,21.53
2023-01-23T12:31:19.210Z,20.27
2023-01-23T12:34:32.956Z,20.43
2023-01-23T12:37:35.618Z,20.13
2023-01-23T12:40:28.140Z,21.77
2023-01-23T12:43:19.406Z,20.73
2023-01-23T12:46:11.738Z,20.47
2023-01-23T12:49:06.983Z,21.77
2023-01-23T12:51:59.919Z,22.10
2023-01-23T12:54:52.318Z,21.77
2023-01-23T12:57:59.477Z,21.17
2023-01-23T13:01:00.230Z,21.77
2023-01-23T13:04:03.295Z,23.50
2023-01-23T13:07:03.038Z,23.73
2023-01-23T13:10:12.354Z,23.90
2023-01-23T13:12:58.883Z,22.50
2023-01-23T13:15:45.736Z,26.47
2023-01-23T13:18:52.971Z,24.57
2023-01-23T13:21:58.014Z,23.67
2023-01-23T13:25:04.093Z,23.57
2023-01-23T13:27:52.985Z,22.53
2023-01-23T13:30:43.761Z,22.40
2023-01-23T13:33:53.793Z,22.77
2023-01-23T13:36:42.310Z,22.60
2023-01-23T13:39:30.270Z,20.83
2023-01-23T13:42:36.005Z,22.20
2023-01-23T13:45:34.722Z,21.97
2023-01-23T14:22:08.474Z,22.43
2023-01-23T14:24:56.297Z,24.60
2023-01-23T14:27:52.673Z,25.40
2023-01-23T14:30:40.185Z,24.43
2023-01-23T14:33:27.784Z,23.57
2023-01-23T14:36:17.353Z,23.97
2023-01-23T14:39:06.261Z,23.20
2023-01-23T14:41:56.170Z,23.17
2023-01-23T14:44:46.497Z,24.07
2023-01-23T14:47:35.339Z,23.60
2023-01-23T14:50:25.696Z,22.77
2023-01-23T14:53:18.129Z,24.13
2023-01-23T14:56:07.175Z,22.53
2023-01-23T14:58:55.566Z,22.30
2023-01-23T15:01:42.195Z,22.73
2023-01-23T15:04:31.025Z,22.27
2023-01-23T15:07:18.860Z,22.43
2023-01-23T15:10:06.196Z,22.00
2023-01-23T15:12:55.803Z,21.20
2023-01-23T15:15:47.892Z,21.33
2023-01-23T15:18:36.652Z,22.83
2023-01-23T15:21:30.311Z,21.23
2023-01-23T15:24:27.694Z,21.43
2023-01-23T15:27:27.071Z,21.37
2023-01-23T15:30:31.974Z,21.17
2023-01-23T15:33:26.994Z,21.07
2023-01-23T15:36:25.455Z,21.47
2023-01-23T15:39:19.997Z,21.00
2023-01-23T15:42:26.315Z,20.67
2023-01-23T15:45:15.912Z,23.10
2023-01-23T15:48:03.883Z,23.83
2023-01-23T15:50:50.412Z,22.43
2023-01-23T15:53:36.792Z,23.50
2023-01-23T15:56:28.964Z,24.03
2023-01-23T15:59:19.995Z,21.87
2023-01-23T16:02:11.020Z,21.77
2023-01-23T16:05:03.126Z,22.17
2023-01-23T16:07:50.985Z,22.20
2023-01-23T16:10:39.197Z,21.27
2023-01-23T16:13:25.742Z,21.63
2023-01-23T16:16:15.200Z,19.97
2023-01-23T16:19:01.907Z,23.53
2023-01-23T16:22:03.173Z,23.43
2023-01-23T16:24:51.582Z,23.10
2023-01-23T16:27:37.906Z,20.53
2023-01-23T16:30:25.384Z,21.13
2023-01-23T16:33:11.798Z,22.10
2023-01-23T16:35:58.392Z,22.73
2023-01-23T16:38:51.297Z,23.77
2023-01-23T16:41:37.997Z,21.50
2023-01-23T16:44:24.880Z,23.13
2023-01-23T16:47:11.551Z,21.90
2023-01-23T16:49:57.812Z,21.70
2023-01-23T16:52:51.764Z,21.63
2023-01-23T16:55:42.004Z,22.43
2023-01-23T16:58:31.149Z,22.43
2023-01-23T17:01:21.629Z,21.07
2023-01-23T17:04:08.396Z,20.33
2023-01-23T17:06:54.875Z,20.63
2023-01-23T17:09:41.302Z,19.17
2023-01-23T17:12:33.972Z,19.40
2023-01-23T17:15:23.396Z,21.87
2023-01-23T17:18:20.631Z,21.23
2023-01-23T17:21:07.526Z,19.93
2023-01-23T17:23:54.489Z,21.10
2023-01-23T17:26:41.220Z,20.93
2023-01-23T17:29:29.409Z,20.63
2023-01-23T17:32:27.778Z,23.97
2023-01-23T17:35:21.371Z,22.17
2023-01-23T17:38:16.809Z,24.47
2023-01-23T17:41:06.391Z,23.53
2023-01-23T17:43:52.886Z,24.47
2023-01-23T17:46:41.242Z,19.13
2023-01-23T17:49:30.346Z,20.87
2023-01-23T17:52:17.065Z,20.93
2023-01-23T17:55:03.619Z,20.63
2023-01-23T17:57:50.712Z,19.80
2023-01-23T18:00:39.174Z,23.07
2023-01-23T18:03:27.744Z,22.27
2023-01-23T18:06:14.519Z,21.87
2023-01-23T18:09:00.854Z,21.40
2023-01-23T18:11:52.143Z,21.73
2023-01-23T18:14:46.352Z,21.13
2023-01-23T18:17:38.803Z,21.03
2023-01-23T18:20:28.436Z,21.20
2023-01-23T18:23:15.654Z,22.70
2023-01-23T18:26:18.476Z,20.00
2023-01-23T18:29:16.063Z,24.80
2023-01-23T18:32:23.816Z,23.13
2023-01-23T18:35:27.740Z,23.13
2023-01-23T18:38:21.979Z,19.87
2023-01-23T18:41:17.119Z,20.27
2023-01-23T18:44:12.309Z,19.27
2023-01-23T18:47:00.161Z,19.37
2023-01-23T18:49:47.327Z,20.07
2023-01-23T18:52:44.593Z,21.20
2023-01-23T18:55:38.275Z,19.60
2023-01-23T18:58:36.559Z,19.63
2023-01-23T19:01:29.522Z,22.03
2023-01-23T19:04:16.951Z,19.47
2023-01-23T19:07:04.042Z,20.37
2023-01-23T19:09:51.172Z,20.30
2023-01-23T19:12:48.063Z,20.10
2023-01-23T19:15:40.149Z,22.40
2023-01-23T19:18:43.742Z,23.07
2023-01-23T19:21:30.673Z,21.70
2023-01-23T19:24:20.360Z,19.97
2023-01-23T19:27:18.820Z,20.97
2023-01-23T19:30:07.932Z,18.07
2023-01-23T19:32:54.835Z,19.10
2023-01-23T19:35:41.310Z,19.77
2023-01-23T19:38:27.728Z,21.33
2023-01-23T19:41:20.760Z,18.27
2023-01-23T19:44:07.797Z,20.60
2023-01-23T19:46:56.009Z,21.70
2023-01-23T19:49:42.403Z,20.67
2023-01-23T19:52:31.874Z,20.57
2023-01-23T19:55:24.954Z,22.27
2023-01-23T19:58:15.650Z,20.77
2023-01-23T20:01:02.298Z,19.87
2023-01-23T20:03:50.123Z,19.63
2023-01-23T20:06:38.797Z,20.03
2023-01-23T20:09:25.350Z,19.80
2023-01-23T20:12:13.599Z,18.97
2023-01-23T20:14:59.970Z,20.03
2023-01-23T20:17:46.467Z,21.60
2023-01-23T20:20:34.151Z,18.13
2023-01-23T20:23:20.816Z,19.07
2023-01-23T20:26:07.811Z,20.50
2023-01-23T20:28:54.380Z,20.20
2023-01-23T20:31:40.985Z,22.03
2023-01-23T20:34:27.316Z,19.97
2023-01-23T20:37:15.329Z,21.00
2023-01-23T20:40:01.872Z,20.83
2023-01-23T20:42:48.302Z,23.30
2023-01-23T20:45:34.509Z,19.40
2023-01-23T20:48:21.962Z,18.93
2023-01-23T20:51:10.013Z,20.77
2023-01-23T20:53:58.281Z,19.33
2023-01-23T20:56:45.879Z,18.63
2023-01-23T20:59:31.426Z,19.33
2023-01-23T21:02:28.014Z,18.43
2023-01-23T21:05:14.992Z,18.23
2023-01-23T21:08:01.905Z,19.13
2023-01-23T21:10:49.526Z,18.90
2023-01-23T21:13:37.281Z,18.37
2023-01-23T21:16:23.633Z,19.63
2023-01-23T21:19:10.264Z,17.87
2023-01-23T21:21:56.797Z,20.17
2023-01-23T21:24:43.553Z,20.07
2023-01-23T21:27:31.507Z,16.43
2023-01-23T21:30:18.238Z,19.77
2023-01-23T21:33:04.794Z,18.63
2023-01-23T21:35:52.083Z,17.03
2023-01-23T21:38:38.480Z,18.97
2023-01-23T21:41:25.316Z,18.93
2023-01-23T21:44:14.028Z,18.77
2023-01-23T21:47:00.446Z,19.10
2023-01-23T21:49:46.737Z,19.43
2023-01-23T21:52:33.195Z,19.53
2023-01-23T21:55:19.752Z,18.40
2023-01-23T21:58:06.583Z,18.60
2023-01-23T22:01:16.339Z,19.47
2023-01-23T22:04:05.469Z,18.60
2023-01-23T22:06:55.442Z,18.20
2023-01-23T22:09:41.935Z,18.70
2023-01-23T22:12:29.018Z,19.77
2023-01-23T22:15:15.963Z,18.03
2023-01-23T22:18:03.898Z,17.63
2023-01-23T22:20:54.503Z,19.83
2023-01-23T22:23:40.959Z,18.97
2023-01-23T22:26:27.314Z,18.90
2023-01-23T22:29:14.812Z,20.57
2023-01-23T22:32:01.210Z,19.67
2023-01-23T22:34:49.408Z,20.17
2023-01-23T22:37:36.333Z,17.17
2023-01-23T22:40:22.604Z,18.27
2023-01-23T22:43:10.176Z,18.67
2023-01-23T22:46:04.748Z,18.73
2023-01-23T22:48:51.630Z,18.93
2023-01-23T22:51:39.524Z,19.13
2023-01-23T22:54:26.487Z,18.90
2023-01-23T22:57:12.926Z,19.37
2023-01-23T22:59:59.353Z,18.17
2023-01-23T23:02:45.785Z,16.80
2023-01-23T23:05:32.204Z,18.40
2023-01-23T23:08:19.924Z,18.47
2023-01-23T23:11:12.401Z,22.55
2023-01-23T23:13:59.187Z,19.30
2023-01-23T23:16:46.234Z,17.97
2023-01-23T23:19:33.167Z,17.80
2023-01-23T23:22:19.539Z,17.93
2023-01-23T23:25:07.995Z,17.77
2023-01-23T23:27:54.680Z,17.63
2023-01-23T23:30:41.224Z,17.03
2023-01-23T23:33:28.161Z,17.67
2023-01-23T23:36:14.825Z,16.80
2023-01-23T23:39:01.199Z,16.40
2023-01-23T23:41:48.928Z,16.67
2023-01-23T23:44:35.351Z,16.67
2023-01-23T23:47:21.656Z,17.90
2023-01-23T23:50:09.421Z,17.07
2023-01-23T23:52:55.947Z,19.43
2023-01-23T23:55:42.542Z,17.37
2023-01-23T23:58:30.354Z,16.60
